^^
Station Historical Data
Daily Summary for December 08, 2017 Units:  Metric    English   Both
« Previous Day
Next Day »
Daily Weekly Monthly Yearly Custom
  High: Low: Average:
Temperature: 38.5 °C 22.1 °C 29.3 °C
Dew Point: 14.5 °C 5.2 °C 8.9 °C
Humidity: 41% 13% 30%
Wind Speed: 40.4km/h 0km/h 4.8km/h
Wind Gust: 49.9km/h - -
Wind- - South
Pressure: 1009.4 hPa 1003.9 hPa -
Precipitation: 0 mm    
Historical Graphs
 
 
Tabular Data for December 08, 2017
Time Temperature Dew Point Pressure Wind Wind Speed Wind Gust Humidity Rainfall Rate (Hourly) solar Conditions
00:49 27.4 °C 11 °C 1007.3 hPa Calm     36% 0 mm 0.0 W/m2
00:54 27.2 °C 10.8 °C 1007.3 hPa Calm     36% 0 mm 0.0 W/m2
01:04 26.8 °C 10.9 °C 1007.3 hPa Calm     37% 0 mm 0.0 W/m2
01:09 26.6 °C 10.7 °C 1007.3 hPa Calm     37% 0 mm 0.0 W/m2
01:15 26.3 °C 10.4 °C 1007.3 hPa Calm     37% 0 mm 0.0 W/m2
01:25 25.9 °C 10.5 °C 1007.3 hPa Calm     38% 0 mm 0.0 W/m2
01:35 25.5 °C 10.5 °C 1007.3 hPa Calm     39% 0 mm 0.0 W/m2
01:40 25.3 °C 10.7 °C 1007.3 hPa Calm     40% 0 mm 0.0 W/m2
01:46 25.2 °C 10.6 °C 1007.3 hPa Calm     40% 0 mm 0.0 W/m2
01:51 25.2 °C 10.3 °C 1007.3 hPa Calm     39% 0 mm 0.0 W/m2
02:01 25.1 °C 9.8 °C 1007.3 hPa Calm     38% 0 mm 0.0 W/m2
02:07 25.1 °C 9.8 °C 1007.3 hPa Calm     38% 0 mm 0.0 W/m2
02:12 25.2 °C 9.5 °C 1007.3 hPa Calm     37% 0 mm 0.0 W/m2
02:23 25.1 °C 9.8 °C 1007.3 hPa Calm     38% 0 mm 0.0 W/m2
02:38 24.7 °C 9 °C 1007.3 hPa Calm     37% 0 mm 0.0 W/m2
02:43 24.6 °C 9.3 °C 1007.3 hPa Calm     38% 0 mm 0.0 W/m2
02:48 24.3 °C 9.1 °C 1007 hPa Calm     38% 0 mm 0.0 W/m2
02:53 23.9 °C 8.7 °C 1007 hPa Calm     38% 0 mm 0.0 W/m2
02:58 23.7 °C 8.5 °C 1007 hPa Calm     38% 0 mm 0.0 W/m2
03:03 23.8 °C 9 °C 1007 hPa Calm     39% 0 mm 0.0 W/m2
03:09 23.9 °C 8.7 °C 1007 hPa Calm     38% 0 mm 0.0 W/m2
03:20 24.2 °C 9.4 °C 1007 hPa Calm     39% 0 mm 0.0 W/m2
03:25 24.4 °C 9.5 °C 1007 hPa Calm     39% 0 mm 0.0 W/m2
03:35 24.4 °C 9.2 °C 1007 hPa Calm     38% 0 mm 0.0 W/m2
03:40 24.4 °C 9.2 °C 1007 hPa Calm     38% 0 mm 0.0 W/m2
03:57 24.2 °C 9.4 °C 1007 hPa Calm     39% 0 mm 0.0 W/m2
04:02 24.1 °C 9.3 °C 1006.7 hPa Calm     39% 0 mm 0.0 W/m2
04:08 23.9 °C 9.1 °C 1006.7 hPa Calm     39% 0 mm 0.0 W/m2
04:17 23.8 °C 9.4 °C 1006.7 hPa Calm     40% 0 mm 0.0 W/m2
04:28 23.5 °C 9.5 °C 1007 hPa Calm     41% 0 mm 0.0 W/m2
04:33 23.4 °C 9.4 °C 1006.7 hPa Calm     41% 0 mm 0.0 W/m2
04:42 23.2 °C 8.5 °C 1006.7 hPa Calm     39% 0 mm 0.0 W/m2
04:48 23.1 °C 8.8 °C 1007 hPa Calm     40% 0 mm 0.0 W/m2
04:53 23.3 °C 7.8 °C 1007 hPa Calm     37% 0 mm 0.0 W/m2
04:58 23.5 °C 8 °C 1007 hPa Calm     37% 0 mm 0.0 W/m2
05:03 23.3 °C 7.8 °C 1007 hPa Calm     37% 0 mm 0.0 W/m2
05:08 23.1 °C 8.4 °C 1007 hPa Calm     39% 0 mm 0.0 W/m2
05:19 22.6 °C 7.9 °C 1007.3 hPa Calm     39% 0 mm 0.0 W/m2
05:24 22.5 °C 7.9 °C 1007.3 hPa Calm     39% 0 mm 0.0 W/m2
05:29 22.6 °C 7.6 °C 1007.3 hPa Calm     38% 0 mm 0.0 W/m2
05:39 22.4 °C 7 °C 1007.3 hPa Calm     37% 0 mm 0.0 W/m2
05:55 22.1 °C 7.1 °C 1007.7 hPa Calm     38% 0 mm 9.0 W/m2
06:00 22.3 °C 7.3 °C 1007.7 hPa Calm     38% 0 mm 12.0 W/m2
06:11 22.8 °C 7.3 °C 1007.7 hPa Calm     37% 0 mm 21.0 W/m2
06:21 24.2 °C 7.3 °C 1008 hPa Calm     34% 0 mm 44.0 W/m2
06:31 24.7 °C 7.3 °C 1008 hPa Calm     33% 0 mm 67.0 W/m2
06:36 24.8 °C 7.9 °C 1008 hPa Calm     34% 0 mm 83.0 W/m2
06:46 25.1 °C 9 °C 1008 hPa Calm     36% 0 mm 118.0 W/m2
06:51 25.3 °C 9.2 °C 1008.4 hPa Calm     36% 0 mm 137.0 W/m2
06:56 25.6 °C 9 °C 1008.4 hPa Calm     35% 0 mm 165.0 W/m2
07:01 25.9 °C 8.8 °C 1008.4 hPa Calm     34% 0 mm 181.0 W/m2
07:07 26.2 °C 9.1 °C 1008.4 hPa Calm     34% 0 mm 200.0 W/m2
07:31 27.3 °C 9.6 °C 1008.4 hPa Calm   9.7 km/h 33% 0 mm 267.0 W/m2
07:54 29 °C 9.7 °C 1008.7 hPa Calm     30% 0 mm 350.0 W/m2
08:13 29.9 °C 9.4 °C 1008.7 hPa NW 3.2 km/h 9.7 km/h 28% 0 mm 399.0 W/m2
08:44 31.2 °C 10 °C 1008.7 hPa Calm   11.3 km/h 27% 0 mm 499.0 W/m2
09:14 31.8 °C 10.5 °C 1008.7 hPa Calm   14.5 km/h 27% 0 mm 598.0 W/m2
09:44 32 °C 10.7 °C 1008.7 hPa North 17.7 km/h 22.5 km/h 27% 0 mm 677.0 W/m2
10:08 32.9 °C 10.3 °C 1008.7 hPa NNW 11.1 km/h 22.5 km/h 25% 0 mm 747.0 W/m2
10:28 33.2 °C 9.9 °C 1008.7 hPa NNW 14.3 km/h 27.4 km/h 24% 0 mm 796.0 W/m2
11:14 34.6 °C 8.4 °C 1008.7 hPa North 13 km/h 25.7 km/h 20% 0 mm 882.0 W/m2
11:45 35.1 °C 8 °C 1008.4 hPa North 7.9 km/h 27.4 km/h 19% 0 mm 925.0 W/m2
12:31 35.2 °C 7.3 °C 1008 hPa Calm     18% 0 mm 956.0 W/m2
13:01 36.2 °C 7.3 °C 1007.7 hPa NW 11.1 km/h 12.9 km/h 17% 0 mm 977.0 W/m2
13:17 36.6 °C 6.7 °C 1007.7 hPa Calm   12.9 km/h 16% 0 mm 988.0 W/m2
13:31 36.8 °C 6.9 °C 1007.3 hPa Calm     16% 0 mm 983.0 W/m2
13:46 36.2 °C 7.3 °C 1007 hPa SW 6.4 km/h 6.4 km/h 17% 0 mm 972.0 W/m2
13:58 37.7 °C 6.6 °C 1007 hPa WSW 9.7 km/h 12.9 km/h 15% 0 mm 998.0 W/m2
14:13 37.3 °C 6.3 °C 1006.7 hPa West 7.9 km/h 17.7 km/h 15% 0 mm 937.0 W/m2
14:42 37.3 °C 6.3 °C 1006.3 hPa Calm     15% 0 mm 907.0 W/m2
14:52 37.3 °C 6.3 °C 1006.3 hPa Calm     15% 0 mm 854.0 W/m2
15:17 37.6 °C 6.6 °C 1005.6 hPa Calm   1.6 km/h 15% 0 mm 116.0 W/m2
15:25 37.2 °C 6.2 °C 1005.6 hPa West 4.7 km/h 6.4 km/h 15% 0 mm 831.0 W/m2
15:31 37.6 °C 6.6 °C 1005.3 hPa WNW 20.9 km/h 24.1 km/h 15% 0 mm 823.0 W/m2
15:38 38.1 °C 6 °C 1005.3 hPa Calm   12.9 km/h 14% 0 mm 534.0 W/m2
15:44 38 °C 5.9 °C 1005 hPa Calm   1.6 km/h 14% 0 mm 803.0 W/m2
15:51 38.1 °C 6 °C 1005 hPa WNW 1.4 km/h 4.8 km/h 14% 0 mm 700.0 W/m2
16:03 37.5 °C 5.5 °C 1005 hPa WNW 1.4 km/h 6.4 km/h 14% 0 mm 132.0 W/m2
16:26 38.5 °C 5.2 °C 1004.6 hPa WNW 6.4 km/h 16.1 km/h 13% 0 mm 633.0 W/m2
16:39 38.1 °C 6 °C 1004.3 hPa West 13 km/h 13 km/h 14% 0 mm 608.0 W/m2
16:49 37.9 °C 5.8 °C 1004.3 hPa SW 13 km/h 14.5 km/h 14% 0 mm 615.0 W/m2
17:00 38.2 °C 6 °C 1003.9 hPa SW 16.3 km/h 20.9 km/h 14% 0 mm 603.0 W/m2
17:12 37.8 °C 5.7 °C 1003.9 hPa Calm     14% 0 mm 557.0 W/m2
17:27 37.9 °C 6.8 °C 1004.3 hPa ENE 14.3 km/h 37 km/h 15% 0 mm 350.0 W/m2
17:40 35.4 °C 9 °C 1005 hPa SE 40.4 km/h 49.9 km/h 20% 0 mm 93.0 W/m2
18:11 31.2 °C 12.1 °C 1005.6 hPa East 16.3 km/h 27.4 km/h 31% 0 mm 178.0 W/m2
18:25 31.4 °C 14.5 °C 1005.6 hPa ESE 25.9 km/h 29 km/h 36% 0 mm 98.0 W/m2
18:35 31.5 °C 13.3 °C 1005.3 hPa East 16.3 km/h 24.1 km/h 33% 0 mm 74.0 W/m2
18:46 32.6 °C 9.4 °C 1005.3 hPa East 13 km/h 19.3 km/h 24% 0 mm 70.0 W/m2
19:10 33.3 °C 7.3 °C 1005.6 hPa ESE 7.9 km/h 14.5 km/h 20% 0 mm 65.0 W/m2
19:22 33.7 °C 6.1 °C 1005.6 hPa SSE 11.1 km/h 24.1 km/h 18% 0 mm 49.0 W/m2
19:38 33.7 °C 6.9 °C 1006 hPa SE 9.7 km/h 12.9 km/h 19% 0 mm 23.0 W/m2
19:53 33.2 °C 7.2 °C 1006.3 hPa SE 9.7 km/h 9.7 km/h 20% 0 mm 0.0 W/m2
21:12 31.5 °C 10.8 °C 1007.3 hPa SSE 4.7 km/h 8 km/h 28% 0 mm 0.0 W/m2
21:20 31.6 °C 10.3 °C 1008 hPa SSE 11.1 km/h 11.3 km/h 27% 0 mm 0.0 W/m2
21:34 31.5 °C 11.8 °C 1008.7 hPa SSE 4.7 km/h 9.7 km/h 30% 0 mm 0.0 W/m2
21:44 31.1 °C 12.5 °C 1009 hPa SSE 9.7 km/h 12.9 km/h 32% 0 mm 0.0 W/m2
21:49 30.9 °C 12.8 °C 1009 hPa SE 13 km/h 16.1 km/h 33% 0 mm 0.0 W/m2
22:04 30.8 °C 11.2 °C 1009.4 hPa SE 13 km/h 17.7 km/h 30% 0 mm 0.0 W/m2
22:14 30.9 °C 10.8 °C 1009 hPa SE 7.9 km/h 12.9 km/h 29% 0 mm 0.0 W/m2
22:24 30.7 °C 10.6 °C 1009 hPa SE 6.4 km/h 8 km/h 29% 0 mm 0.0 W/m2
22:29 30.6 °C 10.5 °C 1009 hPa SE 7.9 km/h 9.7 km/h 29% 0 mm 0.0 W/m2
22:40 30.3 °C 10.3 °C 1009 hPa SSE 11.1 km/h 12.9 km/h 29% 0 mm 0.0 W/m2
22:45 30.1 °C 9.6 °C 1009 hPa SSE 13 km/h 16.1 km/h 28% 0 mm 0.0 W/m2
22:54 29.7 °C 9.8 °C 1009 hPa South 16.3 km/h 22.5 km/h 29% 0 mm 0.0 W/m2
22:59 29.6 °C 10.2 °C 1009 hPa South 13 km/h 17.7 km/h 30% 0 mm 0.0 W/m2
23:04 29.4 °C 10.5 °C 1009 hPa South 16.3 km/h 19.3 km/h 31% 0 mm 0.0 W/m2
23:09 29.3 °C 10.4 °C 1009 hPa South 9.7 km/h 16.1 km/h 31% 0 mm 0.0 W/m2
23:14 29.2 °C 10.3 °C 1009 hPa South 9.7 km/h 12.9 km/h 31% 0 mm 0.0 W/m2
23:20 29.1 °C 9.8 °C 1009 hPa South 7.9 km/h 12.9 km/h 30% 0 mm 0.0 W/m2
23:30 28.9 °C 10.1 °C 1009 hPa South 7.9 km/h 11.3 km/h 31% 0 mm 0.0 W/m2
23:35 28.7 °C 10.4 °C 1009 hPa South 9.7 km/h 9.7 km/h 32% 0 mm 0.0 W/m2
23:40 28.6 °C 10.3 °C 1009 hPa South 7.9 km/h 9.7 km/h 32% 0 mm 0.0 W/m2
Canyon Roadhouse, Fishriver Canyon, Namibia
Compliments of Weather Underground - 2.25 mb